sensor_id;sensor_type;location;lat;lon;timestamp;pressure;altitude;pressure_sealevel;temperature;humidity
9839;BME280;4958;48.150;11.506;2023-07-08T00:00:45;92005.16;;;22.42;28.93
9839;BME280;4958;48.150;11.506;2023-07-08T00:03:14;92071.97;;;22.48;29.27
9839;BME280;4958;48.150;11.506;2023-07-08T00:05:41;92073.94;;;22.51;29.01
9839;BME280;4958;48.150;11.506;2023-07-08T00:08:11;92106.16;;;22.51;29.17
9839;BME280;4958;48.150;11.506;2023-07-08T00:10:39;92099.38;;;22.50;29.12
9839;BME280;4958;48.150;11.506;2023-07-08T00:13:05;92129.56;;;22.44;29.61
9839;BME280;4958;48.150;11.506;2023-07-08T00:15:32;92107.94;;;22.35;29.49
9839;BME280;4958;48.150;11.506;2023-07-08T00:17:59;92106.69;;;22.29;29.89
9839;BME280;4958;48.150;11.506;2023-07-08T00:20:32;92128.66;;;22.24;29.92
9839;BME280;4958;48.150;11.506;2023-07-08T00:23:01;92148.97;;;22.15;30.43
9839;BME280;4958;48.150;11.506;2023-07-08T00:25:30;92208.06;;;22.13;30.50
9839;BME280;4958;48.150;11.506;2023-07-08T00:27:59;92211.00;;;22.11;30.46
9839;BME280;4958;48.150;11.506;2023-07-08T00:30:30;92241.75;;;22.14;30.51
9839;BME280;4958;48.150;11.506;2023-07-08T00:32:57;92244.16;;;22.19;30.14
9839;BME280;4958;48.150;11.506;2023-07-08T00:35:31;92302.25;;;22.21;30.43
9839;BME280;4958;48.150;11.506;2023-07-08T00:37:58;92311.75;;;22.26;30.25
9839;BME280;4958;48.150;11.506;2023-07-08T00:40:32;92349.31;;;22.18;30.86
9839;BME280;4958;48.150;11.506;2023-07-08T00:43:01;92355.63;;;22.17;30.75
9839;BME280;4958;48.150;11.506;2023-07-08T00:45:37;92382.41;;;22.22;30.73
9839;BME280;4958;48.150;11.506;2023-07-08T00:48:19;92368.53;;;22.22;30.52
9839;BME280;4958;48.150;11.506;2023-07-08T00:50:48;92360.88;;;22.17;30.73
9839;BME280;4958;48.150;11.506;2023-07-08T00:53:26;92419.63;;;22.16;31.10
9839;BME280;4958;48.150;11.506;2023-07-08T00:56:00;92450.28;;;22.15;31.14
9839;BME280;4958;48.150;11.506;2023-07-08T00:58:33;92426.72;;;22.15;30.87
9839;BME280;4958;48.150;11.506;2023-07-08T01:01:03;92477.59;;;22.14;31.38
9839;BME280;4958;48.150;11.506;2023-07-08T01:03:31;92499.84;;;22.08;31.71
9839;BME280;4958;48.150;11.506;2023-07-08T01:05:59;92493.84;;;22.08;31.54
9839;BME280;4958;48.150;11.506;2023-07-08T01:08:27;92472.44;;;22.05;31.30
9839;BME280;4958;48.150;11.506;2023-07-08T01:10:59;92455.34;;;21.99;31.49
9839;BME280;4958;48.150;11.506;2023-07-08T01:13:29;92461.47;;;21.91;31.76
9839;BME280;4958;48.150;11.506;2023-07-08T01:15:57;92495.28;;;21.96;31.65
9839;BME280;4958;48.150;11.506;2023-07-08T01:18:24;92509.31;;;22.00;31.47
9839;BME280;4958;48.150;11.506;2023-07-08T01:20:51;92559.25;;;21.95;31.83
9839;BME280;4958;48.150;11.506;2023-07-08T01:23:22;92530.66;;;21.90;31.73
9839;BME280;4958;48.150;11.506;2023-07-08T01:25:48;92526.06;;;21.87;31.69
9839;BME280;4958;48.150;11.506;2023-07-08T01:28:15;92562.97;;;21.94;31.59
9839;BME280;4958;48.150;11.506;2023-07-08T01:30:43;92577.16;;;21.93;31.67
9839;BME280;4958;48.150;11.506;2023-07-08T01:33:16;92573.13;;;21.96;31.52
9839;BME280;4958;48.150;11.506;2023-07-08T01:35:45;92553.09;;;22.00;31.28
9839;BME280;4958;48.150;11.506;2023-07-08T01:38:12;92546.56;;;22.06;30.82
9839;BME280;4958;48.150;11.506;2023-07-08T01:40:50;92396.47;;;22.05;30.04
9839;BME280;4958;48.150;11.506;2023-07-08T01:43:16;92431.19;;;22.15;30.14
9839;BME280;4958;48.150;11.506;2023-07-08T01:45:43;92379.00;;;22.10;30.00
9839;BME280;4958;48.150;11.506;2023-07-08T01:48:11;92417.44;;;22.05;30.37
9839;BME280;4958;48.150;11.506;2023-07-08T01:50:42;92426.53;;;21.99;30.66
9839;BME280;4958;48.150;11.506;2023-07-08T01:53:14;92458.94;;;21.95;30.96
9839;BME280;4958;48.150;11.506;2023-07-08T01:55:42;92430.81;;;21.92;30.95
9839;BME280;4958;48.150;11.506;2023-07-08T01:58:10;92432.97;;;21.90;30.99
9839;BME280;4958;48.150;11.506;2023-07-08T02:00:36;92446.06;;;21.90;31.04
9839;BME280;4958;48.150;11.506;2023-07-08T02:03:03;92431.19;;;21.82;31.20
9839;BME280;4958;48.150;11.506;2023-07-08T02:05:29;92435.34;;;21.83;31.01
9839;BME280;4958;48.150;11.506;2023-07-08T02:07:55;92446.34;;;21.76;31.54
9839;BME280;4958;48.150;11.506;2023-07-08T02:10:22;92487.56;;;21.67;31.98
9839;BME280;4958;48.150;11.506;2023-07-08T02:12:50;92533.59;;;21.68;32.24
9839;BME280;4958;48.150;11.506;2023-07-08T02:15:18;92549.94;;;21.65;32.10
9839;BME280;4958;48.150;11.506;2023-07-08T02:17:44;92534.03;;;21.49;32.89
9839;BME280;4958;48.150;11.506;2023-07-08T02:20:11;92553.00;;;21.46;32.75
9839;BME280;4958;48.150;11.506;2023-07-08T02:22:37;92593.66;;;21.44;32.92
9839;BME280;4958;48.150;11.506;2023-07-08T02:25:04;92635.50;;;21.52;32.77
9839;BME280;4958;48.150;11.506;2023-07-08T02:27:31;92672.78;;;21.49;33.15
9839;BME280;4958;48.150;11.506;2023-07-08T02:29:58;92690.03;;;21.50;33.20
9839;BME280;4958;48.150;11.506;2023-07-08T02:32:26;92696.50;;;21.44;33.62
9839;BME280;4958;48.150;11.506;2023-07-08T02:34:52;92687.94;;;21.18;34.27
9839;BME280;4958;48.150;11.506;2023-07-08T02:37:18;92706.28;;;21.09;34.52
9839;BME280;4958;48.150;11.506;2023-07-08T02:39:45;92795.72;;;21.11;34.49
9839;BME280;4958;48.150;11.506;2023-07-08T02:42:11;92869.13;;;21.23;34.68
9839;BME280;4958;48.150;11.506;2023-07-08T02:44:38;92907.47;;;21.28;34.56
9839;BME280;4958;48.150;11.506;2023-07-08T02:47:06;92883.75;;;21.42;33.73
9839;BME280;4958;48.150;11.506;2023-07-08T02:49:34;92917.94;;;21.45;33.71
9839;BME280;4958;48.150;11.506;2023-07-08T02:52:00;92919.94;;;21.48;33.57
9839;BME280;4958;48.150;11.506;2023-07-08T02:54:27;92884.97;;;21.53;33.14
9839;BME280;4958;48.150;11.506;2023-07-08T02:56:53;92933.94;;;21.61;33.11
9839;BME280;4958;48.150;11.506;2023-07-08T02:59:19;92969.06;;;21.60;33.70
9839;BME280;4958;48.150;11.506;2023-07-08T03:01:46;92985.84;;;21.42;34.48
9839;BME280;4958;48.150;11.506;2023-07-08T03:04:13;92971.19;;;21.23;34.63
9839;BME280;4958;48.150;11.506;2023-07-08T03:06:41;93017.19;;;21.16;34.90
9839;BME280;4958;48.150;11.506;2023-07-08T03:09:08;93092.75;;;21.17;35.03
9839;BME280;4958;48.150;11.506;2023-07-08T03:11:35;93164.66;;;21.20;35.27
9839;BME280;4958;48.150;11.506;2023-07-08T03:14:05;93228.25;;;21.20;35.57
9839;BME280;4958;48.150;11.506;2023-07-08T03:16:32;93197.50;;;21.03;35.66
9839;BME280;4958;48.150;11.506;2023-07-08T03:18:59;93242.25;;;20.93;36.21
9839;BME280;4958;48.150;11.506;2023-07-08T03:21:25;93288.38;;;20.89;36.57
9839;BME280;4958;48.150;11.506;2023-07-08T03:23:53;93295.66;;;21.01;35.67
9839;BME280;4958;48.150;11.506;2023-07-08T03:26:23;93326.66;;;21.08;35.67
9839;BME280;4958;48.150;11.506;2023-07-08T03:28:50;93340.34;;;21.04;35.84
9839;BME280;4958;48.150;11.506;2023-07-08T03:31:17;93395.28;;;21.04;36.44
9839;BME280;4958;48.150;11.506;2023-07-08T03:33:43;93441.31;;;21.06;36.52
9839;BME280;4958;48.150;11.506;2023-07-08T03:36:12;93431.41;;;21.16;35.82
9839;BME280;4958;48.150;11.506;2023-07-08T03:38:48;93449.34;;;21.23;35.97
9839;BME280;4958;48.150;11.506;2023-07-08T03:41:15;93452.63;;;21.28;35.58
9839;BME280;4958;48.150;11.506;2023-07-08T03:43:42;93373.38;;;21.14;35.76
9839;BME280;4958;48.150;11.506;2023-07-08T03:46:10;93349.97;;;21.18;35.18
9839;BME280;4958;48.150;11.506;2023-07-08T03:48:36;93352.13;;;21.16;35.38
9839;BME280;4958;48.150;11.506;2023-07-08T03:51:03;93336.09;;;21.17;35.10
9839;BME280;4958;48.150;11.506;2023-07-08T03:53:29;93344.84;;;21.26;34.66
9839;BME280;4958;48.150;11.506;2023-07-08T03:55:56;93364.47;;;21.37;34.53
9839;BME280;4958;48.150;11.506;2023-07-08T03:58:26;93368.34;;;21.40;34.32
9839;BME280;4958;48.150;11.506;2023-07-08T04:00:52;93405.94;;;21.44;34.77
9839;BME280;4958;48.150;11.506;2023-07-08T04:03:19;93427.44;;;21.55;34.47
9839;BME280;4958;48.150;11.506;2023-07-08T04:05:45;93488.03;;;21.62;34.82
9839;BME280;4958;48.150;11.506;2023-07-08T04:08:12;93477.53;;;21.62;34.73
9839;BME280;4958;48.150;11.506;2023-07-08T04:10:38;93487.25;;;21.61;35.00
9839;BME280;4958;48.150;11.506;2023-07-08T04:13:05;93448.75;;;21.62;34.66
9839;BME280;4958;48.150;11.506;2023-07-08T04:15:32;93468.03;;;21.66;34.63
9839;BME280;4958;48.150;11.506;2023-07-08T04:17:59;93474.25;;;21.56;35.33
9839;BME280;4958;48.150;11.506;2023-07-08T04:20:25;93446.38;;;21.52;35.14
9839;BME280;4958;48.150;11.506;2023-07-08T04:22:52;93442.38;;;21.54;35.13
9839;BME280;4958;48.150;11.506;2023-07-08T04:25:18;93449.47;;;21.54;35.08
9839;BME280;4958;48.150;11.506;2023-07-08T04:27:45;93453.78;;;21.58;35.11
9839;BME280;4958;48.150;11.506;2023-07-08T04:30:19;93453.00;;;21.58;35.00
9839;BME280;4958;48.150;11.506;2023-07-08T04:32:49;93443.59;;;21.57;35.15
9839;BME280;4958;48.150;11.506;2023-07-08T04:35:16;93458.09;;;21.54;35.30
9839;BME280;4958;48.150;11.506;2023-07-08T04:37:42;93415.53;;;21.49;35.21
9839;BME280;4958;48.150;11.506;2023-07-08T04:40:14;93440.75;;;21.45;35.51
9839;BME280;4958;48.150;11.506;2023-07-08T04:42:42;93464.91;;;21.42;35.79
9839;BME280;4958;48.150;11.506;2023-07-08T04:45:10;93459.56;;;21.47;35.43
9839;BME280;4958;48.150;11.506;2023-07-08T04:47:36;93453.84;;;21.45;35.44
9839;BME280;4958;48.150;11.506;2023-07-08T04:50:05;93443.84;;;21.47;35.35
9839;BME280;4958;48.150;11.506;2023-07-08T04:52:32;93427.06;;;21.48;34.92
9839;BME280;4958;48.150;11.506;2023-07-08T04:55:01;93394.88;;;21.47;34.65
9839;BME280;4958;48.150;11.506;2023-07-08T04:57:28;93387.22;;;21.51;34.78
9839;BME280;4958;48.150;11.506;2023-07-08T04:59:55;93408.16;;;21.51;34.89
9839;BME280;4958;48.150;11.506;2023-07-08T05:02:26;93429.75;;;21.56;34.70
9839;BME280;4958;48.150;11.506;2023-07-08T05:04:56;93461.50;;;21.55;34.91
9839;BME280;4958;48.150;11.506;2023-07-08T05:07:47;93453.19;;;21.61;34.86
9839;BME280;4958;48.150;11.506;2023-07-08T05:10:38;93489.88;;;21.61;35.09
9839;BME280;4958;48.150;11.506;2023-07-08T05:13:20;93716.56;;;21.67;36.94
9839;BME280;4958;48.150;11.506;2023-07-08T05:16:15;93976.56;;;21.92;38.21
9839;BME280;4958;48.150;11.506;2023-07-08T05:18:54;94059.78;;;22.19;37.85
9839;BME280;4958;48.150;11.506;2023-07-08T05:21:37;94137.00;;;22.45;37.39
9839;BME280;4958;48.150;11.506;2023-07-08T05:27:42;93756.00;;;22.53;34.85
9839;BME280;4958;48.150;11.506;2023-07-08T05:30:36;93698.63;;;22.38;34.79
9839;BME280;4958;48.150;11.506;2023-07-08T05:33:30;93518.84;;;22.01;35.10
9839;BME280;4958;48.150;11.506;2023-07-08T05:36:05;93645.63;;;21.91;36.27
9839;BME280;4958;48.150;11.506;2023-07-08T05:38:42;93627.06;;;22.01;35.69
9839;BME280;4958;48.150;11.506;2023-07-08T05:41:08;93575.53;;;21.97;35.42
9839;BME280;4958;48.150;11.506;2023-07-08T05:43:36;93552.66;;;21.89;35.79
9839;BME280;4958;48.150;11.506;2023-07-08T05:46:03;93536.28;;;21.83;35.72
9839;BME280;4958;48.150;11.506;2023-07-08T05:48:29;93464.94;;;21.86;35.28
9839;BME280;4958;48.150;11.506;2023-07-08T05:50:58;93555.44;;;22.06;34.81
9839;BME280;4958;48.150;11.506;2023-07-08T05:53:24;93377.91;;;21.98;34.18
9839;BME280;4958;48.150;11.506;2023-07-08T05:55:50;93291.59;;;21.93;33.71
9839;BME280;4958;48.150;11.506;2023-07-08T05:58:17;93419.38;;;21.96;34.52
9839;BME280;4958;48.150;11.506;2023-07-08T06:00:45;93358.41;;;22.04;33.71
9839;BME280;4958;48.150;11.506;2023-07-08T06:03:11;93439.63;;;22.26;33.44
9839;BME280;4958;48.150;11.506;2023-07-08T06:05:38;93325.13;;;22.13;33.38
9839;BME280;4958;48.150;11.506;2023-07-08T06:08:06;93396.66;;;22.05;34.49
9839;BME280;4958;48.150;11.506;2023-07-08T06:10:33;93546.44;;;22.21;34.92
9839;BME280;4958;48.150;11.506;2023-07-08T06:12:59;93563.34;;;22.37;34.37
9839;BME280;4958;48.150;11.506;2023-07-08T06:15:26;93548.94;;;22.48;34.01
9839;BME280;4958;48.150;11.506;2023-07-08T06:17:53;93465.97;;;22.61;32.92
9839;BME280;4958;48.150;11.506;2023-07-08T06:20:20;93450.38;;;22.56;33.35
9839;BME280;4958;48.150;11.506;2023-07-08T06:22:46;93333.41;;;22.55;32.44
9839;BME280;4958;48.150;11.506;2023-07-08T06:25:13;93298.72;;;22.58;32.46
9839;BME280;4958;48.150;11.506;2023-07-08T06:27:39;93326.50;;;22.67;32.20
9839;BME280;4958;48.150;11.506;2023-07-08T06:30:07;93366.84;;;22.80;32.04
9839;BME280;4958;48.150;11.506;2023-07-08T06:32:34;93404.81;;;22.91;32.12
9839;BME280;4958;48.150;11.506;2023-07-08T06:35:02;93363.91;;;22.99;31.60
9839;BME280;4958;48.150;11.506;2023-07-08T06:37:31;93415.50;;;23.03;32.03
9839;BME280;4958;48.150;11.506;2023-07-08T06:39:57;93526.88;;;23.20;32.29
9839;BME280;4958;48.150;11.506;2023-07-08T06:42:24;93313.44;;;23.11;31.28
9839;BME280;4958;48.150;11.506;2023-07-08T06:44:50;93308.50;;;23.18;31.05
9839;BME280;4958;48.150;11.506;2023-07-08T06:47:17;93092.84;;;22.98;30.47
9839;BME280;4958;48.150;11.506;2023-07-08T06:49:45;93128.03;;;22.97;30.92
9839;BME280;4958;48.150;11.506;2023-07-08T06:52:13;93113.22;;;23.01;30.57
9839;BME280;4958;48.150;11.506;2023-07-08T06:54:40;93239.16;;;23.10;31.26
9839;BME280;4958;48.150;11.506;2023-07-08T06:57:06;93338.75;;;23.24;31.53
9839;BME280;4958;48.150;11.506;2023-07-08T06:59:35;93227.25;;;23.21;31.03
9839;BME280;4958;48.150;11.506;2023-07-08T07:02:01;93362.38;;;23.32;31.51
9839;BME280;4958;48.150;11.506;2023-07-08T07:04:28;93486.75;;;23.45;32.20
9839;BME280;4958;48.150;11.506;2023-07-08T07:06:55;93418.03;;;23.60;31.18
9839;BME280;4958;48.150;11.506;2023-07-08T07:09:23;93496.22;;;23.72;31.44
9839;BME280;4958;48.150;11.506;2023-07-08T07:11:50;93473.66;;;23.80;31.41
9839;BME280;4958;48.150;11.506;2023-07-08T07:14:16;93457.72;;;23.85;31.34
9839;BME280;4958;48.150;11.506;2023-07-08T07:16:42;93557.75;;;23.97;31.55
9839;BME280;4958;48.150;11.506;2023-07-08T07:19:09;93567.63;;;24.08;31.60
9839;BME280;4958;48.150;11.506;2023-07-08T07:21:35;93456.13;;;24.09;30.80
9839;BME280;4958;48.150;11.506;2023-07-08T07:24:02;93418.53;;;24.09;30.67
9839;BME280;4958;48.150;11.506;2023-07-08T07:26:31;93376.16;;;24.10;30.41
9839;BME280;4958;48.150;11.506;2023-07-08T07:28:57;93450.56;;;24.20;30.81
9839;BME280;4958;48.150;11.506;2023-07-08T07:31:24;93482.41;;;24.18;31.63
9839;BME280;4958;48.150;11.506;2023-07-08T07:33:50;93566.56;;;24.27;31.77
9839;BME280;4958;48.150;11.506;2023-07-08T07:36:20;93523.56;;;24.31;31.53
9839;BME280;4958;48.150;11.506;2023-07-08T07:38:46;93461.97;;;24.32;30.79
9839;BME280;4958;48.150;11.506;2023-07-08T07:41:13;93380.63;;;24.27;30.77
9839;BME280;4958;48.150;11.506;2023-07-08T07:43:42;93406.91;;;24.27;30.83
9839;BME280;4958;48.150;11.506;2023-07-08T07:46:09;93338.53;;;24.27;30.49
9839;BME280;4958;48.150;11.506;2023-07-08T07:48:36;93323.69;;;24.31;30.06
9839;BME280;4958;48.150;11.506;2023-07-08T07:51:03;93301.50;;;24.41;29.56
9839;BME280;4958;48.150;11.506;2023-07-08T07:53:30;93057.22;;;24.39;28.16
9839;BME280;4958;48.150;11.506;2023-07-08T07:55:57;92963.63;;;24.38;27.42
9839;BME280;4958;48.150;11.506;2023-07-08T07:58:29;93046.59;;;24.48;27.78
9839;BME280;4958;48.150;11.506;2023-07-08T08:00:57;93002.88;;;24.43;27.79
9839;BME280;4958;48.150;11.506;2023-07-08T08:03:26;93124.53;;;24.53;28.52
9839;BME280;4958;48.150;11.506;2023-07-08T08:06:10;93151.94;;;24.52;29.11
9839;BME280;4958;48.150;11.506;2023-07-08T08:08:46;93073.03;;;24.52;28.29
9839;BME280;4958;48.150;11.506;2023-07-08T08:11:42;93163.19;;;24.61;29.04
9839;BME280;4958;48.150;11.506;2023-07-08T08:17:44;93163.03;;;24.57;29.57
9839;BME280;4958;48.150;11.506;2023-07-08T08:20:31;93305.97;;;24.70;30.23
9839;BME280;4958;48.150;11.506;2023-07-08T08:23:21;93325.13;;;24.79;30.24
9839;BME280;4958;48.150;11.506;2023-07-08T08:25:50;93401.69;;;24.86;30.81
9839;BME280;4958;48.150;11.506;2023-07-08T08:28:18;93408.94;;;24.98;30.01
9839;BME280;4958;48.150;11.506;2023-07-08T08:30:59;93318.34;;;24.99;29.93
9839;BME280;4958;48.150;11.506;2023-07-08T08:33:42;93381.91;;;25.09;30.01
9839;BME280;4958;48.150;11.506;2023-07-08T08:36:22;93323.66;;;25.11;29.75
9839;BME280;4958;48.150;11.506;2023-07-08T08:38:49;93338.19;;;25.17;29.55
9839;BME280;4958;48.150;11.506;2023-07-08T08:41:17;93317.78;;;25.26;29.35
9839;BME280;4958;48.150;11.506;2023-07-08T08:43:45;93314.00;;;25.36;29.31
9839;BME280;4958;48.150;11.506;2023-07-08T08:46:25;93331.97;;;25.55;28.23
9839;BME280;4958;48.150;11.506;2023-07-08T08:48:59;93371.25;;;25.60;28.86
9839;BME280;4958;48.150;11.506;2023-07-08T08:51:30;93288.94;;;25.63;28.50
9839;BME280;4958;48.150;11.506;2023-07-08T08:53:58;93287.09;;;25.63;28.56
9839;BME280;4958;48.150;11.506;2023-07-08T08:56:28;93195.38;;;25.57;28.28
9839;BME280;4958;48.150;11.506;2023-07-08T08:59:01;93148.91;;;25.52;28.41
9839;BME280;4958;48.150;11.506;2023-07-08T09:01:30;93163.66;;;25.65;28.13
9839;BME280;4958;48.150;11.506;2023-07-08T09:04:01;93133.13;;;25.76;27.63
9839;BME280;4958;48.150;11.506;2023-07-08T09:06:31;93201.91;;;25.96;27.37
9839;BME280;4958;48.150;11.506;2023-07-08T09:09:02;93171.09;;;26.00;27.27
9839;BME280;4958;48.150;11.506;2023-07-08T09:11:39;93020.06;;;25.87;27.06
9839;BME280;4958;48.150;11.506;2023-07-08T09:14:14;93068.75;;;25.90;27.44
9839;BME280;4958;48.150;11.506;2023-07-08T09:16:46;93032.94;;;25.89;27.22
9839;BME280;4958;48.150;11.506;2023-07-08T09:19:22;93179.78;;;26.12;27.60
9839;BME280;4958;48.150;11.506;2023-07-08T09:21:53;93257.47;;;26.27;28.19
9839;BME280;4958;48.150;11.506;2023-07-08T09:24:29;93227.81;;;26.30;27.38
9839;BME280;4958;48.150;11.506;2023-07-08T09:26:59;93064.44;;;26.25;27.20
9839;BME280;4958;48.150;11.506;2023-07-08T09:29:27;93119.84;;;26.25;27.85
9839;BME280;4958;48.150;11.506;2023-07-08T09:31:53;93120.59;;;26.38;27.35
9839;BME280;4958;48.150;11.506;2023-07-08T09:34:23;93051.00;;;26.42;26.64
9839;BME280;4958;48.150;11.506;2023-07-08T09:37:24;93022.06;;;26.46;26.52
9839;BME280;4958;48.150;11.506;2023-07-08T09:39:51;92932.50;;;26.37;26.61
9839;BME280;4958;48.150;11.506;2023-07-08T09:42:19;92903.13;;;26.39;26.51
9839;BME280;4958;48.150;11.506;2023-07-08T09:44:48;92952.34;;;26.47;26.88
9839;BME280;4958;48.150;11.506;2023-07-08T09:47:21;93044.66;;;26.75;26.35
9839;BME280;4958;48.150;11.506;2023-07-08T09:49:51;93130.16;;;26.98;26.37
9839;BME280;4958;48.150;11.506;2023-07-08T09:52:19;93114.50;;;27.05;26.42
9839;BME280;4958;48.150;11.506;2023-07-08T09:54:45;93041.31;;;27.06;25.83
9839;BME280;4958;48.150;11.506;2023-07-08T09:57:24;93117.56;;;27.23;26.28
9839;BME280;4958;48.150;11.506;2023-07-08T09:59:53;93022.09;;;27.40;25.14
9839;BME280;4958;48.150;11.506;2023-07-08T10:02:33;93046.38;;;27.62;24.89
9839;BME280;4958;48.150;11.506;2023-07-08T10:05:26;92904.53;;;27.69;23.48
9839;BME280;4958;48.150;11.506;2023-07-08T10:07:55;92818.63;;;27.82;22.79
9839;BME280;4958;48.150;11.506;2023-07-08T10:10:28;92866.47;;;27.97;22.81
9839;BME280;4958;48.150;11.506;2023-07-08T10:12:58;92920.41;;;28.11;22.95
9839;BME280;4958;48.150;11.506;2023-07-08T10:15:30;92913.53;;;28.26;22.94
9839;BME280;4958;48.150;11.506;2023-07-08T10:17:58;92744.53;;;28.25;21.85
9839;BME280;4958;48.150;11.506;2023-07-08T10:20:37;92707.06;;;28.23;22.05
9839;BME280;4958;48.150;11.506;2023-07-08T10:23:20;92653.88;;;28.31;21.94
9839;BME280;4958;48.150;11.506;2023-07-08T10:25:56;92642.38;;;28.50;21.60
9839;BME280;4958;48.150;11.506;2023-07-08T10:28:49;92773.91;;;28.72;21.41
9839;BME280;4958;48.150;11.506;2023-07-08T10:37:32;92491.06;;;28.81;20.44
9839;BME280;4958;48.150;11.506;2023-07-08T10:37:59;92609.25;;;28.97;20.93
9839;BME280;4958;48.150;11.506;2023-07-08T11:09:49;92139.34;;;30.11;17.34
9839;BME280;4958;48.150;11.506;2023-07-08T11:12:24;92139.72;;;30.03;18.43
9839;BME280;4958;48.150;11.506;2023-07-08T11:18:38;92128.72;;;29.94;19.41
9839;BME280;4958;48.150;11.506;2023-07-08T11:31:29;92058.38;;;30.62;17.54
9839;BME280;4958;48.150;11.506;2023-07-08T11:44:20;91750.06;;;30.90;16.71
9839;BME280;4958;48.150;11.506;2023-07-08T11:47:00;91687.81;;;30.91;16.63
9839;BME280;4958;48.150;11.506;2023-07-08T11:49:27;91673.28;;;31.00;16.26
9839;BME280;4958;48.150;11.506;2023-07-08T11:51:56;91553.63;;;31.07;16.29
9839;BME280;4958;48.150;11.506;2023-07-08T11:54:28;91447.31;;;31.10;15.65
9839;BME280;4958;48.150;11.506;2023-07-08T11:56:59;91351.28;;;31.12;15.33
9839;BME280;4958;48.150;11.506;2023-07-08T11:59:29;91392.66;;;31.33;14.73
9839;BME280;4958;48.150;11.506;2023-07-08T12:08:43;91617.63;;;31.70;16.33
9839;BME280;4958;48.150;11.506;2023-07-08T12:11:27;91459.75;;;31.80;15.20
9839;BME280;4958;48.150;11.506;2023-07-08T12:13:58;91410.53;;;31.72;15.81
9839;BME280;4958;48.150;11.506;2023-07-08T12:20:04;91509.06;;;31.84;16.74
9839;BME280;4958;48.150;11.506;2023-07-08T12:22:45;91296.19;;;31.88;14.98
9839;BME280;4958;48.150;11.506;2023-07-08T12:25:39;91021.00;;;31.60;15.16
9839;BME280;4958;48.150;11.506;2023-07-08T12:31:28;90848.16;;;32.02;12.96
9839;BME280;4958;48.150;11.506;2023-07-08T12:34:04;90928.50;;;32.09;14.05
9839;BME280;4958;48.150;11.506;2023-07-08T12:36:42;90967.63;;;32.25;13.49
9839;BME280;4958;48.150;11.506;2023-07-08T12:39:40;90654.31;;;32.25;12.29
9839;BME280;4958;48.150;11.506;2023-07-08T13:14:14;90090.91;;;31.22;13.75
9839;BME280;4958;48.150;11.506;2023-07-08T13:20:38;90212.00;;;31.41;13.43
9839;BME280;4958;48.150;11.506;2023-07-08T13:30:24;90106.41;;;31.23;13.12
9839;BME280;4958;48.150;11.506;2023-07-08T13:33:33;90158.94;;;31.19;14.11
9839;BME280;4958;48.150;11.506;2023-07-08T14:02:47;89830.63;;;32.24;10.75
9839;BME280;4958;48.150;11.506;2023-07-08T14:05:16;89861.75;;;32.33;11.37
9839;BME280;4958;48.150;11.506;2023-07-08T14:11:26;89876.34;;;32.47;10.83
9839;BME280;4958;48.150;11.506;2023-07-08T14:14:45;89597.63;;;32.62;9.36
9839;BME280;4958;48.150;11.506;2023-07-08T14:27:10;89268.47;;;31.83;10.39
9839;BME280;4958;48.150;11.506;2023-07-08T15:50:28;88724.84;;;31.05;10.83
9839;BME280;4958;48.150;11.506;2023-07-08T15:52:58;88853.84;;;31.11;11.50
9839;BME280;4958;48.150;11.506;2023-07-08T16:02:42;88815.28;;;31.16;11.28
9839;BME280;4958;48.150;11.506;2023-07-08T16:05:28;88720.88;;;31.15;11.29
9839;BME280;4958;48.150;11.506;2023-07-08T16:19:52;88941.72;;;31.13;11.21
9839;BME280;4958;48.150;11.506;2023-07-08T16:22:25;88952.34;;;31.13;11.22
9839;BME280;4958;48.150;11.506;2023-07-08T16:25:08;88760.56;;;31.04;11.28
9839;BME280;4958;48.150;11.506;2023-07-08T16:27:44;88693.94;;;31.02;11.03
9839;BME280;4958;48.150;11.506;2023-07-08T16:30:16;88624.13;;;30.90;10.94
9839;BME280;4958;48.150;11.506;2023-07-08T16:32:43;88559.88;;;30.80;11.65
9839;BME280;4958;48.150;11.506;2023-07-08T16:35:14;88528.41;;;30.62;11.82
9839;BME280;4958;48.150;11.506;2023-07-08T16:37:46;88657.53;;;30.50;12.08
9839;BME280;4958;48.150;11.506;2023-07-08T16:40:23;88689.84;;;30.49;12.58
9839;BME280;4958;48.150;11.506;2023-07-08T16:42:54;88736.78;;;30.43;13.21
9839;BME280;4958;48.150;11.506;2023-07-08T16:45:27;88592.75;;;30.31;12.52
9839;BME280;4958;48.150;11.506;2023-07-08T16:47:54;88542.03;;;30.18;12.35
9839;BME280;4958;48.150;11.506;2023-07-08T16:50:30;88645.81;;;30.11;12.84
9839;BME280;4958;48.150;11.506;2023-07-08T16:53:17;88790.59;;;30.08;12.85
9839;BME280;4958;48.150;11.506;2023-07-08T16:55:46;88777.44;;;30.14;12.88
9839;BME280;4958;48.150;11.506;2023-07-08T16:58:18;88879.97;;;30.22;13.09
9839;BME280;4958;48.150;11.506;2023-07-08T17:00:51;88985.66;;;30.30;13.21
9839;BME280;4958;48.150;11.506;2023-07-08T17:03:25;88812.03;;;30.25;12.11
9839;BME280;4958;48.150;11.506;2023-07-08T17:06:08;88800.03;;;30.30;12.17
9839;BME280;4958;48.150;11.506;2023-07-08T17:08:47;88756.16;;;30.29;12.31
9839;BME280;4958;48.150;11.506;2023-07-08T17:11:17;88751.59;;;30.29;12.48
9839;BME280;4958;48.150;11.506;2023-07-08T17:13:48;88775.72;;;30.31;12.72
9839;BME280;4958;48.150;11.506;2023-07-08T17:16:26;88829.94;;;30.30;12.17
9839;BME280;4958;48.150;11.506;2023-07-08T17:22:29;89050.94;;;30.27;13.35
9839;BME280;4958;48.150;11.506;2023-07-08T17:31:56;89382.19;;;30.16;14.35
9839;BME280;4958;48.150;11.506;2023-07-08T17:41:55;89240.16;;;30.00;14.68
9839;BME280;4958;48.150;11.506;2023-07-08T17:47:53;89289.78;;;29.90;15.17
9839;BME280;4958;48.150;11.506;2023-07-08T17:50:23;89262.25;;;29.88;15.22
9839;BME280;4958;48.150;11.506;2023-07-08T17:52:57;89324.84;;;29.85;15.78
9839;BME280;4958;48.150;11.506;2023-07-08T17:55:27;89275.41;;;29.82;15.12
9839;BME280;4958;48.150;11.506;2023-07-08T17:58:02;89309.28;;;29.78;15.90
9839;BME280;4958;48.150;11.506;2023-07-08T18:00:53;89338.28;;;29.73;16.36
9839;BME280;4958;48.150;11.506;2023-07-08T18:03:25;89334.63;;;29.70;15.67
9839;BME280;4958;48.150;11.506;2023-07-08T18:05:51;89345.81;;;29.65;16.28
9839;BME280;4958;48.150;11.506;2023-07-08T18:11:49;89514.38;;;29.63;16.23
9839;BME280;4958;48.150;11.506;2023-07-08T18:14:27;89563.25;;;29.62;16.56
9839;BME280;4958;48.150;11.506;2023-07-08T18:17:15;89560.72;;;29.58;17.11